Terminal Aerodrome Forecast
Issued by NWS Twin Cities, MN

Home | Current Version | Previous Version | Text Only | Print | Product List | Glossary Off
Versions: 1 2 3 4 5 6 7 8 9 10 11 12 13 14 15 16 17 18

000
FTUS43 KMPX 271726
TAFSTC
TAF
KSTC 271726Z 2718/2818 32012KT P6SM FEW015 BKN020 OVC040
     FM280100 30009KT P6SM FEW025 BKN035
     FM281400 32008KT P6SM SCT030=

USA.gov is the U.S. government's official web portal to all federal, state and local government web resources and services.